Time;durP1;ratioP1;P1;durP2;ratioP2;P2;SDS_P1;SDS_P2;PMS_P1;PMS_P2;Temp;Humidity;BMP_temperature;BMP_pressure;BME280_temperature;BME280_humidity;BME280_pressure;Samples;Min_cycle;Max_cycle;Signal;HPM_P1;HPM_P2
2021/09/20 00:00:34;;;;;;;4.28;3.60;;;20.70;69.70;;;;;;10414501;28;20132;-65
2021/09/20 00:05:34;;;;;;;4.47;3.60;;;20.70;69.80;;;;;;10412358;28;20113;-65
2021/09/20 00:10:35;;;;;;;4.20;3.53;;;20.70;69.70;;;;;;10413333;28;20033;-65
2021/09/20 00:15:36;;;;;;;5.25;4.05;;;20.80;69.60;;;;;;10413163;28;20390;-64
2021/09/20 00:20:37;;;;;;;5.32;4.10;;;20.70;69.60;;;;;;10432690;28;20021;-64
2021/09/20 00:25:38;;;;;;;4.20;3.50;;;20.70;69.60;;;;;;10419927;28;20063;-64
2021/09/20 00:30:40;;;;;;;4.57;4.13;;;20.70;69.70;;;;;;10412660;28;20065;-64
2021/09/20 00:35:41;;;;;;;5.05;3.92;;;20.70;69.70;;;;;;10413837;28;20497;-64
2021/09/20 00:40:42;;;;;;;4.97;3.88;;;20.70;69.70;;;;;;10412576;28;20033;-65
2021/09/20 00:45:42;;;;;;;5.03;3.80;;;20.70;69.70;;;;;;10412651;28;20137;-65
2021/09/20 00:50:43;;;;;;;4.28;3.70;;;20.70;69.60;;;;;;10412505;28;20053;-65
2021/09/20 00:55:44;;;;;;;4.70;3.83;;;20.70;69.80;;;;;;10411727;28;20033;-65
2021/09/20 01:00:45;;;;;;;4.75;3.65;;;20.70;69.80;;;;;;10412202;28;20473;-64
2021/09/20 01:05:46;;;;;;;4.78;3.90;;;20.70;69.70;;;;;;10412327;28;20485;-65
2021/09/20 01:10:46;;;;;;;4.85;3.70;;;20.70;69.70;;;;;;10413340;28;20531;-64
2021/09/20 01:15:47;;;;;;;4.55;3.70;;;20.70;70.20;;;;;;10414793;28;20117;-64
2021/09/20 01:20:48;;;;;;;5.28;4.35;;;20.70;69.70;;;;;;10426772;28;20148;-64
2021/09/20 01:25:49;;;;;;;5.88;3.83;;;20.70;69.70;;;;;;10418994;28;20545;-65
2021/09/20 01:30:49;;;;;;;5.18;4.00;;;20.60;69.50;;;;;;10419070;28;20116;-64
2021/09/20 01:35:50;;;;;;;5.10;4.10;;;20.60;69.50;;;;;;10418171;28;20553;-64
2021/09/20 01:40:51;;;;;;;5.13;4.43;;;20.60;69.40;;;;;;10418823;28;20371;-64
2021/09/20 01:45:52;;;;;;;4.65;4.13;;;20.60;69.40;;;;;;10418395;28;20508;-65
2021/09/20 01:50:52;;;;;;;6.13;3.88;;;20.60;69.30;;;;;;10419027;28;20108;-64
2021/09/20 01:55:53;;;;;;;4.68;3.90;;;20.60;69.30;;;;;;10417897;28;20072;-64
2021/09/20 02:00:54;;;;;;;4.50;3.83;;;20.60;69.20;;;;;;10418989;28;20025;-64
2021/09/20 02:05:54;;;;;;;5.18;4.05;;;20.60;69.10;;;;;;10418408;28;20124;-64
2021/09/20 02:10:55;;;;;;;4.78;3.90;;;20.60;69.00;;;;;;10418680;28;20116;-64
2021/09/20 02:15:56;;;;;;;4.88;4.35;;;20.60;68.90;;;;;;10417058;28;20030;-64
2021/09/20 02:20:57;;;;;;;4.80;3.70;;;20.50;68.90;;;;;;10429082;28;20596;-64
2021/09/20 02:26:00;;;;;;;6.18;4.70;;;20.50;68.90;;;;;;10399623;28;20377;-64
2021/09/20 02:31:00;;;;;;;4.20;3.80;;;20.50;68.90;;;;;;10399853;28;20033;-64
2021/09/20 02:36:03;;;;;;;5.45;3.80;;;20.50;68.80;;;;;;10417010;28;20061;-64
2021/09/20 02:41:04;;;;;;;4.53;3.97;;;20.50;68.80;;;;;;10415987;28;20053;-64
2021/09/20 02:46:05;;;;;;;5.28;4.13;;;20.50;68.70;;;;;;10416040;28;20084;-64
2021/09/20 02:51:06;;;;;;;4.50;3.92;;;20.50;68.60;;;;;;10417317;28;20526;-64
2021/09/20 02:56:07;;;;;;;4.57;4.10;;;20.50;68.60;;;;;;10415563;28;20120;-64
2021/09/20 03:01:07;;;;;;;5.50;4.25;;;20.50;68.60;;;;;;10421898;28;20398;-64
2021/09/20 03:06:08;;;;;;;4.93;4.03;;;20.50;68.50;;;;;;10421977;28;20433;-64
2021/09/20 03:11:09;;;;;;;4.93;4.10;;;20.40;68.50;;;;;;10412589;28;20057;-64
2021/09/20 03:16:09;;;;;;;4.57;4.05;;;20.40;68.40;;;;;;10414737;28;20045;-64
2021/09/20 03:21:10;;;;;;;5.03;4.20;;;20.40;68.30;;;;;;10428831;28;20051;-64
2021/09/20 03:26:11;;;;;;;7.30;3.97;;;20.40;68.30;;;;;;10415887;28;20104;-64
2021/09/20 03:31:11;;;;;;;4.93;4.13;;;20.40;68.30;;;;;;10414306;28;20363;-64
2021/09/20 03:36:12;;;;;;;4.43;3.53;;;20.40;68.20;;;;;;10414300;28;20094;-64
2021/09/20 03:41:13;;;;;;;5.00;4.05;;;20.40;68.10;;;;;;10414616;28;20140;-63
2021/09/20 03:46:14;;;;;;;4.68;3.92;;;20.40;68.00;;;;;;10414515;28;20053;-64
2021/09/20 03:51:14;;;;;;;4.80;3.83;;;20.40;68.00;;;;;;10428179;28;20115;-64
2021/09/20 03:56:15;;;;;;;4.97;4.10;;;20.40;67.90;;;;;;10414656;28;20041;-64
2021/09/20 04:01:16;;;;;;;4.47;3.53;;;20.40;67.90;;;;;;10413319;28;20104;-63
2021/09/20 04:06:16;;;;;;;4.60;4.10;;;20.40;67.90;;;;;;10415348;28;20037;-64
2021/09/20 04:11:17;;;;;;;5.13;4.18;;;20.40;67.90;;;;;;10414504;28;20022;-63
2021/09/20 04:16:18;;;;;;;5.28;3.80;;;20.30;67.70;;;;;;10413153;28;20064;-64
2021/09/20 04:21:18;;;;;;;4.88;3.90;;;20.30;67.60;;;;;;10425352;28;20029;-64
2021/09/20 04:26:19;;;;;;;4.32;3.63;;;20.30;67.50;;;;;;10414196;28;20061;-64
2021/09/20 04:31:20;;;;;;;5.00;4.05;;;20.30;67.50;;;;;;10413750;28;20029;-64
2021/09/20 04:36:21;;;;;;;4.82;3.92;;;20.30;67.50;;;;;;10412348;28;20025;-64
2021/09/20 04:41:21;;;;;;;5.20;4.07;;;20.30;67.40;;;;;;10408818;28;20025;-64
2021/09/20 04:46:22;;;;;;;4.80;3.95;;;20.30;67.30;;;;;;10413278;28;20124;-64
2021/09/20 04:51:23;;;;;;;4.80;3.55;;;20.30;67.30;;;;;;10413578;28;20039;-64
2021/09/20 04:56:24;;;;;;;4.65;3.95;;;20.30;67.30;;;;;;10420721;28;20072;-65
2021/09/20 05:01:26;;;;;;;5.03;4.10;;;20.20;67.20;;;;;;10412096;28;20033;-64
2021/09/20 05:06:26;;;;;;;6.35;3.83;;;20.20;67.70;;;;;;10417412;28;20069;-64
2021/09/20 05:11:27;;;;;;;7.47;5.05;;;20.20;66.60;;;;;;10419370;28;20038;-64
2021/09/20 05:16:28;;;;;;;5.13;3.92;;;20.30;68.20;;;;;;10420708;28;20109;-62
2021/09/20 05:21:28;;;;;;;6.43;4.53;;;20.30;67.60;;;;;;10420034;28;20029;-60
2021/09/20 05:26:29;;;;;;;10.20;4.57;;;20.40;67.70;;;;;;10419608;28;20041;-63
2021/09/20 05:31:30;;;;;;;10.50;4.95;;;20.40;67.60;;;;;;10417701;28;20029;-63
2021/09/20 05:36:31;;;;;;;8.48;3.97;;;20.40;67.70;;;;;;10418294;28;20022;-61
2021/09/20 05:41:31;;;;;;;10.43;4.75;;;20.40;67.90;;;;;;10418564;28;20029;-62
2021/09/20 05:46:32;;;;;;;9.15;4.32;;;20.40;67.90;;;;;;10408177;28;20107;-62
2021/09/20 05:51:33;;;;;;;14.57;5.50;;;20.40;68.30;;;;;;10418399;28;20382;-62
2021/09/20 05:56:35;;;;;;;13.00;5.53;;;20.40;68.00;;;;;;10416209;28;20124;-62
2021/09/20 06:01:35;;;;;;;16.25;5.05;;;20.40;67.90;;;;;;10415679;28;20389;-61
2021/09/20 06:06:36;;;;;;;8.68;4.68;;;20.50;68.10;;;;;;10418583;28;20040;-62
2021/09/20 06:11:37;;;;;;;10.43;4.63;;;20.50;67.80;;;;;;10416592;28;20067;-63
2021/09/20 06:16:38;;;;;;;13.82;4.78;;;20.40;67.80;;;;;;10413574;28;20478;-62
2021/09/20 06:21:38;;;;;;;15.00;5.20;;;20.40;67.60;;;;;;10415852;28;20037;-62
2021/09/20 06:26:39;;;;;;;8.15;4.85;;;20.40;67.70;;;;;;10414587;28;20053;-62
2021/09/20 06:31:40;;;;;;;10.30;4.93;;;20.40;67.50;;;;;;10415188;28;20037;-62
2021/09/20 06:36:41;;;;;;;8.75;4.78;;;20.40;67.70;;;;;;10414027;28;20038;-62
2021/09/20 06:41:42;;;;;;;7.60;4.47;;;20.40;66.90;;;;;;10414780;28;20052;-62
2021/09/20 06:46:44;;;;;;;9.60;5.03;;;20.30;67.30;;;;;;10415675;28;20045;-61
2021/09/20 06:51:44;;;;;;;13.27;5.40;;;20.40;66.30;;;;;;10425112;28;20047;-61
2021/09/20 06:56:46;;;;;;;15.43;6.22;;;20.30;67.30;;;;;;10420307;28;20132;-61
2021/09/20 07:01:47;;;;;;;11.27;4.65;;;20.40;67.50;;;;;;10415066;28;20366;-64
2021/09/20 07:06:48;;;;;;;12.52;4.47;;;20.40;67.20;;;;;;10414707;28;20045;-62
2021/09/20 07:11:49;;;;;;;15.70;5.18;;;20.40;66.90;;;;;;10414855;28;20052;-61
2021/09/20 07:16:49;;;;;;;13.80;4.82;;;20.40;67.00;;;;;;10405731;28;20025;-62
2021/09/20 07:21:50;;;;;;;19.75;5.85;;;20.40;67.20;;;;;;10413789;28;20114;-60
2021/09/20 07:26:51;;;;;;;23.63;6.15;;;20.40;67.30;;;;;;10414378;28;20057;-61
2021/09/20 07:31:51;;;;;;;19.63;6.55;;;20.40;67.20;;;;;;10412482;28;20030;-60
2021/09/20 07:36:52;;;;;;;16.25;5.43;;;20.40;67.50;;;;;;10413326;28;20111;-62
2021/09/20 07:41:53;;;;;;;13.88;5.43;;;20.40;67.50;;;;;;10414875;28;20028;-61
2021/09/20 07:46:53;;;;;;;18.42;6.10;;;20.40;67.60;;;;;;10404415;28;20144;-61
2021/09/20 07:51:54;;;;;;;17.52;6.45;;;20.40;67.60;;;;;;10414173;28;20025;-61
2021/09/20 07:56:55;;;;;;;19.42;5.68;;;20.40;67.90;;;;;;10414295;28;20113;-61
2021/09/20 08:01:55;;;;;;;15.15;5.97;;;20.40;67.90;;;;;;10412472;28;20419;-61
2021/09/20 08:06:56;;;;;;;17.17;6.07;;;20.40;67.90;;;;;;10412193;28;20052;-61
2021/09/20 08:11:57;;;;;;;19.55;6.13;;;20.40;68.00;;;;;;10413559;28;20065;-62
2021/09/20 08:16:58;;;;;;;18.55;6.47;;;20.40;67.90;;;;;;10404247;28;20029;-62
2021/09/20 08:21:59;;;;;;;21.33;6.00;;;20.40;67.70;;;;;;10439053;28;20573;-62
2021/09/20 08:27:00;;;;;;;18.60;5.60;;;20.50;67.90;;;;;;10418462;28;20108;-64
2021/09/20 08:32:01;;;;;;;13.57;4.95;;;20.40;67.90;;;;;;10421412;28;20028;-63
2021/09/20 08:37:02;;;;;;;8.75;5.38;;;20.50;67.70;;;;;;10421007;28;20138;-71
2021/09/20 08:42:03;;;;;;;14.10;5.10;;;20.40;67.30;;;;;;10416943;28;20027;-71
2021/09/20 08:47:05;;;;;;;10.30;5.22;;;20.50;67.00;;;;;;10420517;28;20081;-71
2021/09/20 08:52:06;;;;;;;10.60;5.25;;;20.50;66.70;;;;;;10420554;28;20033;-72
2021/09/20 08:57:09;;;;;;;15.52;5.55;;;20.50;66.30;;;;;;10420302;28;20048;-72
2021/09/20 09:02:16;;;;;;;8.20;4.80;;;20.50;66.10;;;;;;10419901;28;20025;-76
2021/09/20 09:07:21;;;;;;;13.15;5.47;;;20.50;66.10;;;;;;10419739;28;20032;-73
2021/09/20 09:12:25;;;;;;;7.38;4.95;;;20.50;65.90;;;;;;10419548;28;20053;-72
2021/09/20 09:17:28;;;;;;;8.45;5.25;;;20.50;65.80;;;;;;10417459;28;20025;-73
2021/09/20 09:22:59;;;;;;;12.45;5.50;;;20.50;65.60;;;;;;10433453;28;20049;-72
2021/09/20 09:28:10;;;;;;;11.40;4.78;;;20.50;65.60;;;;;;10410325;28;20048;-72
2021/09/20 09:33:19;;;;;;;8.00;4.70;;;20.60;65.60;;;;;;10419734;28;20490;-72
2021/09/20 09:38:22;;;;;;;10.25;4.65;;;20.60;65.60;;;;;;10418503;28;20049;-73
2021/09/20 09:43:35;;;;;;;8.32;5.00;;;20.60;65.40;;;;;;10418395;28;20087;-73
2021/09/20 09:48:38;;;;;;;7.50;4.95;;;20.60;65.50;;;;;;10418254;28;20041;-73
2021/09/20 09:53:46;;;;;;;7.53;4.95;;;20.60;65.60;;;;;;10418166;28;20386;-74
2021/09/20 09:59:05;;;;;;;8.18;4.85;;;20.60;65.40;;;;;;10417230;28;20035;-71
2021/09/20 10:04:10;;;;;;;6.35;4.68;;;20.60;65.40;;;;;;10417710;28;20048;-69
2021/09/20 10:09:27;;;;;;;6.88;4.88;;;20.60;65.50;;;;;;10417590;28;20036;-74
2021/09/20 10:14:28;;;;;;;9.32;6.22;;;20.70;65.50;;;;;;10417389;28;20034;-75
2021/09/20 10:19:30;;;;;;;7.55;5.05;;;20.60;65.40;;;;;;10428508;28;20056;-69
2021/09/20 10:24:31;;;;;;;5.57;4.25;;;20.70;65.50;;;;;;10419116;28;20033;-74
2021/09/20 10:29:32;;;;;;;7.10;4.78;;;20.70;65.40;;;;;;10416526;28;20470;-68
2021/09/20 10:34:33;;;;;;;6.97;4.72;;;20.70;65.60;;;;;;10416311;28;20474;-71
2021/09/20 10:39:51;;;;;;;5.53;4.40;;;20.70;65.60;;;;;;10416259;28;20037;-72
2021/09/20 10:44:52;;;;;;;6.33;4.00;;;20.80;65.70;;;;;;10415745;28;20084;-63
2021/09/20 10:49:53;;;;;;;5.97;4.30;;;20.80;65.70;;;;;;10415120;28;20044;-66
2021/09/20 10:55:08;;;;;;;6.30;4.28;;;20.80;65.90;;;;;;10415597;28;20113;-67
2021/09/20 11:00:25;;;;;;;7.78;4.63;;;20.80;66.00;;;;;;10415175;28;20033;-65
2021/09/20 11:05:29;;;;;;;6.80;4.40;;;20.90;65.90;;;;;;10416256;28;20037;-66
2021/09/20 11:10:34;;;;;;;7.05;4.22;;;20.90;65.90;;;;;;10415091;28;20033;-68
2021/09/20 11:15:43;;;;;;;7.70;5.10;;;20.90;65.60;;;;;;10414551;28;20061;-67
2021/09/20 11:20:47;;;;;;;7.28;4.70;;;20.90;65.40;;;;;;10427491;28;20034;-70
2021/09/20 11:26:13;;;;;;;8.48;5.03;;;20.90;64.90;;;;;;10414562;28;20029;-69
2021/09/20 11:31:14;;;;;;;7.43;5.53;;;20.90;64.70;;;;;;10402349;28;20041;-69
2021/09/20 11:36:28;;;;;;;6.70;5.47;;;20.90;64.60;;;;;;10415077;28;20083;-68
2021/09/20 11:41:29;;;;;;;6.78;4.35;;;20.90;64.40;;;;;;10414038;28;20059;-70
2021/09/20 11:46:30;;;;;;;6.30;4.97;;;21.00;63.90;;;;;;10414852;28;20534;-69
2021/09/20 11:51:31;;;;;;;7.45;5.68;;;21.00;64.20;;;;;;10412701;28;20080;-68
2021/09/20 11:56:32;;;;;;;7.10;6.43;;;21.00;63.80;;;;;;10412189;28;20033;-69
2021/09/20 12:01:32;;;;;;;8.23;6.05;;;20.90;63.90;;;;;;10412389;28;20549;-69
2021/09/20 12:06:33;;;;;;;6.30;5.07;;;20.90;64.10;;;;;;10414399;28;20485;-70
2021/09/20 12:11:34;;;;;;;6.57;5.68;;;20.90;64.10;;;;;;10412972;28;20021;-69
2021/09/20 12:16:34;;;;;;;6.50;5.68;;;20.90;64.20;;;;;;10413328;28;20132;-68
2021/09/20 12:21:35;;;;;;;15.35;5.95;;;21.00;64.30;;;;;;10414050;28;20065;-73
2021/09/20 12:26:38;;;;;;;14.25;6.47;;;20.90;64.60;;;;;;10413173;28;20033;-69
2021/09/20 12:31:41;;;;;;;20.98;7.53;;;20.90;65.10;;;;;;10414024;28;20175;-70
2021/09/20 12:36:49;;;;;;;17.05;7.40;;;20.90;65.20;;;;;;10412719;28;20038;-69
2021/09/20 12:42:03;;;;;;;14.45;6.68;;;20.90;65.30;;;;;;10412432;28;20064;-72
2021/09/20 12:47:12;;;;;;;24.90;8.45;;;20.90;65.50;;;;;;10413288;28;20049;-71
2021/09/20 12:52:32;;;;;;;13.33;7.20;;;20.90;65.80;;;;;;10413680;28;20379;-72
2021/09/20 12:57:33;;;;;;;18.25;7.32;;;20.90;65.80;;;;;;10412100;28;20528;-69
2021/09/20 13:02:37;;;;;;;27.67;8.27;;;20.90;65.80;;;;;;10411531;28;20028;-68
2021/09/20 13:07:38;;;;;;;35.38;9.02;;;20.90;65.90;;;;;;10410983;28;20036;-71
2021/09/20 13:12:52;;;;;;;25.50;8.32;;;20.90;66.10;;;;;;10415416;28;20360;-69
2021/09/20 13:17:57;;;;;;;26.83;8.57;;;20.90;66.20;;;;;;10418648;28;20044;-69
2021/09/20 13:23:10;;;;;;;28.88;10.10;;;20.90;66.20;;;;;;10418926;28;20025;-76
2021/09/20 13:28:23;;;;;;;32.65;9.00;;;20.90;66.20;;;;;;10418761;28;20038;-73
2021/09/20 13:33:27;;;;;;;40.17;10.07;;;20.90;66.10;;;;;;10419358;28;20087;-73
2021/09/20 13:38:31;;;;;;;38.67;10.77;;;20.90;66.30;;;;;;10402550;28;20494;-67
2021/09/20 13:43:36;;;;;;;30.02;10.13;;;20.90;66.20;;;;;;10418172;28;20053;-70
2021/09/20 13:48:37;;;;;;;30.90;10.50;;;20.90;66.10;;;;;;10418180;28;20042;-70
2021/09/20 13:53:38;;;;;;;39.22;10.85;;;20.90;65.90;;;;;;10401499;28;20026;-69
2021/09/20 13:58:38;;;;;;;29.90;9.48;;;20.90;66.30;;;;;;10432812;28;20033;-68
2021/09/20 14:03:39;;;;;;;20.10;9.18;;;20.90;65.60;;;;;;10417266;28;20079;-68
2021/09/20 14:08:39;;;;;;;14.48;7.70;;;20.90;65.50;;;;;;10418761;28;20764;-68
2021/09/20 14:13:41;;;;;;;13.90;7.63;;;20.90;65.50;;;;;;10418263;28;20041;-68
2021/09/20 14:18:43;;;;;;;17.52;7.30;;;20.80;65.30;;;;;;10420901;28;20021;-68
2021/09/20 14:23:43;;;;;;;19.65;8.52;;;20.80;65.30;;;;;;10424049;28;20025;-67
2021/09/20 14:28:46;;;;;;;21.65;7.60;;;20.80;65.10;;;;;;10416843;28;20100;-69
2021/09/20 14:33:47;;;;;;;17.35;7.57;;;20.80;65.00;;;;;;10417456;28;20025;-68
2021/09/20 14:38:48;;;;;;;15.88;7.45;;;20.80;64.90;;;;;;10417566;28;20029;-68
2021/09/20 14:43:49;;;;;;;12.73;6.68;;;20.80;64.90;;;;;;10400306;28;20041;-69
2021/09/20 14:48:49;;;;;;;12.02;6.45;;;20.80;65.00;;;;;;10414935;28;20077;-69
2021/09/20 14:53:50;;;;;;;13.68;6.55;;;20.80;64.90;;;;;;10417000;28;20033;-69
2021/09/20 14:58:51;;;;;;;11.95;6.28;;;20.80;64.80;;;;;;10415799;28;20034;-70
2021/09/20 15:03:52;;;;;;;13.18;7.03;;;20.70;64.80;;;;;;10415593;28;20052;-69
2021/09/20 15:08:52;;;;;;;10.32;5.68;;;20.80;64.70;;;;;;10415178;28;20573;-69
2021/09/20 15:13:53;;;;;;;12.65;6.10;;;20.70;64.60;;;;;;10416243;28;20124;-69
2021/09/20 15:18:54;;;;;;;11.82;5.60;;;20.70;64.70;;;;;;10403562;28;20063;-69
2021/09/20 15:23:55;;;;;;;12.93;6.20;;;20.70;64.60;;;;;;10398674;28;20033;-68
2021/09/20 15:28:56;;;;;;;11.90;5.85;;;20.70;64.60;;;;;;10415775;28;20533;-69
2021/09/20 15:33:56;;;;;;;7.93;4.43;;;20.70;64.20;;;;;;10414006;28;20072;-70
2021/09/20 15:38:57;;;;;;;9.20;5.13;;;20.80;63.50;;;;;;10414099;28;20057;-70
2021/09/20 15:44:00;;;;;;;27.88;6.18;;;20.70;62.90;;;;;;10408824;28;20211;-68
2021/09/20 15:49:00;;;;;;;24.30;6.85;;;20.70;61.90;;;;;;10403983;28;20136;-67
2021/09/20 15:54:01;;;;;;;18.10;6.07;;;20.80;63.00;;;;;;10413266;28;20434;-69
2021/09/20 15:59:02;;;;;;;20.73;5.60;;;20.80;63.50;;;;;;10414396;28;20104;-63
2021/09/20 16:04:03;;;;;;;11.25;5.45;;;20.70;64.60;;;;;;10412889;28;20048;-62
2021/09/20 16:09:04;;;;;;;20.27;6.22;;;20.80;64.50;;;;;;10414379;28;20065;-66
2021/09/20 16:14:05;;;;;;;16.75;5.35;;;20.80;65.10;;;;;;10413833;28;20385;-66
2021/09/20 16:19:07;;;;;;;19.95;5.60;;;20.90;64.40;;;;;;10409208;28;20037;-70
2021/09/20 16:24:08;;;;;;;18.65;5.32;;;20.90;64.50;;;;;;10413090;28;20032;-68
2021/09/20 16:29:09;;;;;;;15.13;4.90;;;20.90;64.30;;;;;;10413546;28;20529;-66
2021/09/20 16:34:10;;;;;;;11.88;4.53;;;20.90;64.00;;;;;;10412995;28;20124;-68
2021/09/20 16:39:11;;;;;;;14.50;4.78;;;20.90;64.10;;;;;;10412062;28;20117;-63
2021/09/20 16:44:12;;;;;;;16.30;4.50;;;20.80;64.00;;;;;;10412164;28;20087;-69
2021/09/20 16:49:12;;;;;;;13.68;5.55;;;20.80;64.30;;;;;;10418347;28;20231;-68
2021/09/20 16:54:13;;;;;;;22.70;6.13;;;20.80;64.60;;;;;;10420225;28;20041;-67
2021/09/20 16:59:16;;;;;;;18.27;5.47;;;20.70;65.00;;;;;;10415038;28;20053;-67
2021/09/20 17:04:17;;;;;;;16.13;4.93;;;20.80;65.20;;;;;;10419257;28;20108;-69
2021/09/20 17:09:17;;;;;;;16.05;4.35;;;20.80;65.20;;;;;;10416222;28;20125;-67
2021/09/20 17:14:19;;;;;;;14.80;5.05;;;20.80;65.30;;;;;;10418650;28;20120;-68
2021/09/20 17:19:19;;;;;;;14.07;4.38;;;20.80;65.40;;;;;;10421571;28;20087;-64
2021/09/20 17:24:21;;;;;;;10.82;4.32;;;20.80;65.80;;;;;;10418274;28;20057;-68
2021/09/20 17:29:21;;;;;;;19.60;3.78;;;20.80;65.90;;;;;;10417453;28;20031;-67
2021/09/20 17:34:22;;;;;;;17.83;4.45;;;20.80;65.40;;;;;;10417863;28;20036;-64
2021/09/20 17:39:23;;;;;;;11.40;3.65;;;20.80;65.40;;;;;;10398387;28;20124;-66
2021/09/20 17:44:24;;;;;;;13.75;4.60;;;20.80;65.00;;;;;;10388992;28;20044;-67
2021/09/20 17:49:25;;;;;;;13.48;3.85;;;20.80;64.60;;;;;;10403211;28;20041;-66
2021/09/20 17:54:26;;;;;;;13.13;3.83;;;20.70;64.40;;;;;;10402262;28;20091;-65
2021/09/20 17:59:26;;;;;;;14.85;3.38;;;20.80;64.90;;;;;;10415439;28;20454;-64
2021/09/20 18:04:27;;;;;;;12.55;3.60;;;20.70;65.10;;;;;;10415967;28;20037;-67
2021/09/20 18:09:28;;;;;;;9.13;3.45;;;20.70;64.60;;;;;;10398907;28;20049;-66
2021/09/20 18:14:29;;;;;;;7.53;3.10;;;20.70;64.60;;;;;;10411104;28;20037;-64
2021/09/20 18:19:30;;;;;;;13.93;3.17;;;20.70;64.40;;;;;;10405150;28;20490;-66
2021/09/20 18:24:34;;;;;;;8.27;2.38;;;20.60;64.30;;;;;;10385799;28;20033;-65
2021/09/20 18:29:36;;;;;;;8.00;3.13;;;20.60;64.40;;;;;;10414643;28;20025;-65
2021/09/20 18:34:36;;;;;;;13.25;3.45;;;20.70;64.60;;;;;;10406714;28;20422;-66
2021/09/20 18:39:37;;;;;;;9.20;3.13;;;20.60;64.60;;;;;;10393959;28;20033;-65
2021/09/20 18:44:38;;;;;;;7.28;3.55;;;20.70;64.80;;;;;;10408092;28;20033;-65
2021/09/20 18:49:38;;;;;;;6.47;3.42;;;20.70;64.80;;;;;;10403289;28;20056;-65
2021/09/20 18:54:39;;;;;;;6.20;2.95;;;20.60;64.80;;;;;;10412354;28;20029;-64
2021/09/20 18:59:41;;;;;;;7.60;2.50;;;20.60;64.90;;;;;;10407898;28;20352;-65
2021/09/20 19:04:42;;;;;;;7.15;2.47;;;20.60;64.90;;;;;;10413362;28;20033;-65
2021/09/20 19:09:42;;;;;;;8.18;2.40;;;20.60;64.80;;;;;;10404033;28;20069;-66
2021/09/20 19:14:43;;;;;;;5.75;2.28;;;20.60;65.00;;;;;;10401306;28;20038;-66
2021/09/20 19:19:44;;;;;;;8.30;2.50;;;20.60;65.00;;;;;;10411941;28;20468;-65
2021/09/20 19:24:45;;;;;;;5.60;2.80;;;20.60;65.00;;;;;;10410306;28;20034;-58
2021/09/20 19:29:46;;;;;;;7.43;3.45;;;20.60;65.00;;;;;;10430468;28;20036;-61
2021/09/20 19:34:47;;;;;;;6.85;2.22;;;20.60;65.00;;;;;;10429304;28;20068;-61
2021/09/20 19:39:48;;;;;;;6.07;2.50;;;20.60;65.10;;;;;;10419067;28;20021;-61
2021/09/20 19:44:48;;;;;;;4.95;2.15;;;20.60;65.20;;;;;;10413643;28;20042;-61
2021/09/20 19:49:49;;;;;;;5.63;2.35;;;20.60;65.20;;;;;;10404448;28;20112;-61
2021/09/20 19:54:50;;;;;;;4.60;2.25;;;20.50;65.10;;;;;;10413588;28;20057;-61
2021/09/20 19:59:51;;;;;;;4.57;2.22;;;20.50;64.80;;;;;;10413427;28;20113;-61
2021/09/20 20:04:51;;;;;;;4.55;2.30;;;20.50;64.80;;;;;;10396780;28;20448;-61
2021/09/20 20:09:52;;;;;;;4.55;2.00;;;20.50;65.30;;;;;;10413020;28;20120;-61
2021/09/20 20:14:53;;;;;;;4.03;2.15;;;20.40;64.80;;;;;;10414473;28;20505;-61
2021/09/20 20:19:54;;;;;;;3.42;2.03;;;20.50;65.10;;;;;;10418995;28;20022;-61
2021/09/20 20:24:55;;;;;;;5.53;2.30;;;20.40;64.90;;;;;;10411103;28;20037;-61
2021/09/20 20:29:56;;;;;;;4.82;1.83;;;20.40;65.00;;;;;;10406177;28;20044;-61
2021/09/20 20:34:56;;;;;;;3.85;2.22;;;20.40;65.00;;;;;;10412687;28;20068;-61
2021/09/20 20:39:58;;;;;;;2.28;1.77;;;20.40;65.10;;;;;;10413540;28;20066;-62
2021/09/20 20:44:58;;;;;;;3.30;1.90;;;20.40;65.10;;;;;;10412326;28;20050;-61
2021/09/20 20:49:59;;;;;;;3.85;1.60;;;20.40;65.10;;;;;;10407961;28;20030;-60
2021/09/20 20:55:00;;;;;;;3.03;1.70;;;20.30;65.10;;;;;;10429208;28;20037;-61
2021/09/20 21:00:02;;;;;;;3.80;2.33;;;20.30;65.10;;;;;;10413309;28;20048;-62
2021/09/20 21:05:05;;;;;;;3.65;1.88;;;20.30;65.10;;;;;;10411971;28;20116;-61
2021/09/20 21:10:07;;;;;;;4.70;2.17;;;20.30;65.40;;;;;;10411506;28;20033;-61
2021/09/20 21:15:11;;;;;;;3.28;1.85;;;20.30;65.10;;;;;;10412627;28;20489;-61
2021/09/20 21:20:12;;;;;;;3.97;1.95;;;20.30;65.10;;;;;;10423705;28;20052;-61
2021/09/20 21:25:13;;;;;;;3.35;1.90;;;20.30;65.80;;;;;;10421517;28;20061;-61
2021/09/20 21:30:13;;;;;;;2.63;1.67;;;20.20;65.10;;;;;;10412163;28;20061;-62
2021/09/20 21:35:14;;;;;;;2.55;1.60;;;20.20;65.10;;;;;;10429089;28;20434;-61
2021/09/20 21:40:16;;;;;;;2.95;1.77;;;20.20;65.10;;;;;;10426399;28;20120;-62
2021/09/20 21:45:17;;;;;;;3.17;1.65;;;20.20;65.10;;;;;;10406923;28;20398;-61
2021/09/20 21:50:18;;;;;;;3.70;1.83;;;20.20;65.10;;;;;;10425816;28;20057;-61
2021/09/20 21:55:19;;;;;;;3.20;2.15;;;20.20;65.20;;;;;;10438894;28;20069;-61
2021/09/20 22:00:21;;;;;;;2.58;1.52;;;20.20;65.20;;;;;;10433444;28;20029;-62
2021/09/20 22:05:22;;;;;;;2.67;1.77;;;20.20;65.20;;;;;;10419340;28;20030;-61
2021/09/20 22:10:23;;;;;;;2.47;1.38;;;20.20;65.20;;;;;;10429713;28;20435;-61
2021/09/20 22:15:23;;;;;;;3.80;1.95;;;20.10;65.20;;;;;;10430561;28;20071;-61
2021/09/20 22:20:24;;;;;;;3.83;1.85;;;20.10;65.30;;;;;;10405199;28;20064;-61
2021/09/20 22:25:25;;;;;;;4.45;2.00;;;20.10;65.30;;;;;;10426238;28;20037;-61
2021/09/20 22:30:26;;;;;;;4.78;1.85;;;20.10;65.20;;;;;;10418286;28;20794;-61
2021/09/20 22:35:27;;;;;;;2.42;1.80;;;20.10;65.30;;;;;;10426282;28;20116;-61
2021/09/20 22:40:28;;;;;;;5.13;2.00;;;20.10;65.40;;;;;;10428867;28;20507;-61
2021/09/20 22:45:28;;;;;;;2.63;1.67;;;20.10;65.30;;;;;;10428426;28;20073;-61
2021/09/20 22:50:30;;;;;;;3.08;2.22;;;20.10;65.40;;;;;;10399708;28;20079;-60
2021/09/20 22:55:31;;;;;;;2.10;1.58;;;20.10;65.40;;;;;;10428816;28;20045;-61
2021/09/20 23:00:32;;;;;;;3.20;2.00;;;20.10;65.30;;;;;;10416184;28;20025;-62
2021/09/20 23:05:33;;;;;;;2.85;1.92;;;20.00;65.30;;;;;;10428768;28;20485;-60
2021/09/20 23:10:33;;;;;;;2.95;1.75;;;20.00;65.10;;;;;;10427946;28;20103;-62
2021/09/20 23:15:34;;;;;;;2.70;1.60;;;20.00;65.20;;;;;;10416449;28;20037;-61
2021/09/20 23:20:35;;;;;;;2.88;1.60;;;20.00;65.20;;;;;;10416178;28;20117;-61
2021/09/20 23:25:35;;;;;;;2.88;1.90;;;20.00;65.10;;;;;;10414807;28;20112;-62
2021/09/20 23:30:36;;;;;;;2.70;1.73;;;20.00;65.00;;;;;;10416053;28;20490;-61
2021/09/20 23:35:37;;;;;;;2.97;1.83;;;20.00;64.90;;;;;;10428649;28;20033;-61
2021/09/20 23:40:37;;;;;;;4.57;2.15;;;19.90;64.90;;;;;;10414270;28;20029;-61
2021/09/20 23:45:38;;;;;;;3.42;1.60;;;19.90;64.70;;;;;;10413981;28;20171;-61
2021/09/20 23:50:39;;;;;;;3.88;1.90;;;19.90;64.80;;;;;;10413870;28;20068;-61
2021/09/20 23:55:40;;;;;;;2.72;2.00;;;19.90;64.80;;;;;;10400037;28;20455;-60
